If you wish to contribute or participate in the discussions about articles you are invited to join SKYbrary as a registered user

 Actions

Doctor Fernando Piragine Niveyro International Airport

From SKYbrary Wiki

SARC
Airport
ICAO: SARC – IATA: CNQ
Summary
Name Doctor Fernando Piragine Niveyro International Airport
Region South America and Caribbean
Territory Argentina AR.gif
Location , Corrientes
Serving Corrientes
Elevation 61.57 m
202 ft
202 ft61.57 m
Type medium airport
Coordinates 27° 26' 43.81" S, 58° 45' 42.71" W
Runways
Designator Length Width Surface ROPS
2/20 2100 m6,889.764 ft
45 m147.638 ft
CON /


METAR
Observation SARC 190400Z 05006KT CAVOK 16/12 Q1006
Station Corrientes Aero.
Date/Time 19 September 2019 04:00:00
Wind direction 50°
Wind speed 06 kts
Lowest cloud amount clouds and visibility OK
Temperature 16°C
Dew point 12°C
Humidity 77%
QNH 1006 hPa
Weather condition n/a

Airport serving city of Corrientes, Corrientes province, Argentina.

Climatology

Humid, sub-tropical climate (Köppen climate classification Cfa). Wide variation in temperatures during the winter due to effects of close proximity to Andes.

Maps

Terrain

Loading map...

Airport Layout

Loading map...


Accidents & Serious Incidents at or in vicinity of SARC

None on SKYbrary